Decoded Metar for KEZS ( in _UNIDENTIFIED) (IATA:N/A) | Meteo·Mobile Aviation Weather
aviador You're here:

KEZS Decoded Metar

in _UNIDENTIFIED
Report Time2019-02-16 17:15:00
UTC Time2019-02-16 17:09:01
Flight Rules vfr VFR
Wind080° at 04 kt
W.Decomp.*RWY 12: 3.2 kt HW 2.5 kt LCW
RWY 17: 0.1 kt HW 4 kt LCW
W.Rank080° ranks 16
Current wind is below 080° avg. (6.2)
Visibility9999 m
Phenomena:N/A
Clouds:N/A
Expected CloudBase > 3,600 ft AGL from Temp-Dew spread
CeilingNone
Temp-1°C (ISA -14)
Dew Point-10°C (51% RH)
AAT-5.5°C
QNH1022 hPa
Density Alt-1,207 ft
Elevation814 ft
Report Wrong Elevation
Raw Report
KEZS 161715Z AUTO 08004KT 10SM CLR M01/M10 A3017 RMK AO2
T10151096=

Extra information for KEZS:More info

Metar Taf Metar & Taf Last 4 Metars F.Rules Stats Wind Profile Meteogram Temp Stats Metar ALERT Operation Metar Decoded Social comments